CheckWX is a tool to help pilots better visualize weather data.  It is not intended as a substitute for an official pre-flight weather briefing.

00:28:53 UTC

PADQ TAF
Kodiak Airport
Kodiak, Alaska, USA
PADQ 162340Z 1700/1724 28015G20KT P6SM SKC FM170500 27008KT P6SM SKC FM171800 12007KT P6SM VCSH SCT050 BKN100 FM172100 12008KT P6SM -RA BKN040 OVC080

Sep-17@
00:00 UTC

Sep-17 @ 00:00 UTC

Sep-17@
05:00 UTC

Sep-17 @ 05:00 UTC

PADQ 162340Z 1700/1724 28015G20KT P6SM SKC
Wind
  • 280° at 15 KTS
  • {Gusting to 20 KTS
Cloud Levels
  • Clear skies

Sep-17@
05:00 UTC

Sep-17 @ 05:00 UTC

Sep-17@
18:00 UTC

Sep-17 @ 18:00 UTC

FM170500 27008KT P6SM SKC

From

From Standard forecast or significant change

Wind
  • 270° at 8 KTS
Cloud Levels
  • Clear skies

Sep-17@
18:00 UTC

Sep-17 @ 18:00 UTC

Sep-17@
21:00 UTC

Sep-17 @ 21:00 UTC

FM171800 12007KT P6SM VCSH SCT050 BKN100

From

From Standard forecast or significant change

Wind
  • 120° at 7 KTS
Cloud Levels
  • Scattered at 5,000' AGL
  • Broken at 10,000' AGL

Sep-17@
21:00 UTC

Sep-17 @ 21:00 UTC

Sep-18@
00:00 UTC

Sep-18 @ 00:00 UTC

FM172100 12008KT P6SM -RA BKN040 OVC080

From

From Standard forecast or significant change

Wind
  • 120° at 8 KTS
Conditions
Light Rain
Cloud Levels
  • Broken at 4,000' AGL
  • Overcast at 8,000' AGL